createdAt,value
2022-08-11T00:00:20.274Z,98.50
2022-08-11T00:02:48.752Z,98.60
2022-08-11T00:05:15.439Z,98.60
2022-08-11T00:07:46.811Z,98.70
2022-08-11T00:10:14.372Z,99.00
2022-08-11T00:12:39.861Z,99.20
2022-08-11T00:15:04.308Z,99.60
2022-08-11T00:17:33.344Z,99.50
2022-08-11T00:20:11.940Z,99.90
2022-08-11T00:22:44.670Z,99.90
2022-08-11T00:25:14.253Z,99.90
2022-08-11T00:27:42.243Z,99.90
2022-08-11T00:30:08.951Z,99.90
2022-08-11T00:32:33.706Z,99.90
2022-08-11T00:35:50.908Z,99.90
2022-08-11T00:37:50.779Z,99.90
2022-08-11T00:40:24.840Z,99.90
2022-08-11T00:43:03.284Z,99.90
2022-08-11T00:45:33.995Z,99.90
2022-08-11T00:48:08.852Z,99.90
2022-08-11T00:50:48.574Z,99.90
2022-08-11T00:53:40.605Z,99.90
2022-08-11T00:56:44.565Z,99.90
2022-08-11T00:59:56.564Z,99.90
2022-08-11T01:02:30.787Z,99.90
2022-08-11T01:05:38.705Z,99.90
2022-08-11T01:09:17.899Z,99.90
2022-08-11T01:12:23.124Z,99.90
2022-08-11T01:15:31.157Z,99.90
2022-08-11T01:19:03.053Z,99.90
2022-08-11T01:22:20.360Z,99.90
2022-08-11T01:25:30.982Z,99.90
2022-08-11T01:28:59.177Z,99.90
2022-08-11T01:32:17.096Z,99.90
2022-08-11T01:35:43.549Z,99.90
2022-08-11T01:39:18.367Z,99.90
2022-08-11T01:42:32.022Z,99.90
2022-08-11T01:45:17.156Z,99.90
2022-08-11T01:47:54.527Z,99.90
2022-08-11T01:50:38.540Z,99.90
2022-08-11T01:53:17.620Z,99.90
2022-08-11T01:56:03.623Z,99.90
2022-08-11T01:58:43.697Z,99.90
2022-08-11T02:01:27.458Z,99.90
2022-08-11T02:04:00.244Z,99.90
2022-08-11T02:06:57.484Z,99.90
2022-08-11T02:09:49.565Z,99.90
2022-08-11T02:12:37.816Z,99.90
2022-08-11T02:15:15.788Z,99.90
2022-08-11T02:17:53.773Z,99.90
2022-08-11T02:20:49.511Z,99.90
2022-08-11T02:24:06.852Z,99.90
2022-08-11T02:26:37.843Z,99.90
2022-08-11T02:29:14.121Z,99.90
2022-08-11T02:32:24.200Z,99.90
2022-08-11T02:35:03.189Z,99.90
2022-08-11T02:37:38.828Z,99.90
2022-08-11T02:40:21.080Z,99.90
2022-08-11T02:43:07.196Z,99.90
2022-08-11T02:45:46.304Z,99.90
2022-08-11T02:48:46.608Z,99.90
2022-08-11T02:51:22.096Z,99.90
2022-08-11T02:53:58.970Z,99.90
2022-08-11T02:56:44.609Z,99.90
2022-08-11T02:59:38.274Z,99.90
2022-08-11T03:02:14.280Z,99.90
2022-08-11T03:04:49.971Z,99.90
2022-08-11T03:07:29.058Z,99.90
2022-08-11T03:10:05.323Z,99.90
2022-08-11T03:12:59.383Z,99.90
2022-08-11T03:15:48.580Z,99.90
2022-08-11T03:18:26.882Z,99.90
2022-08-11T03:21:00.499Z,99.90
2022-08-11T03:23:35.497Z,99.90
2022-08-11T03:26:07.724Z,99.90
2022-08-11T03:28:37.644Z,99.90
2022-08-11T03:31:16.861Z,99.90
2022-08-11T03:34:07.247Z,99.90
2022-08-11T03:37:16.130Z,99.90
2022-08-11T03:39:57.305Z,99.90
2022-08-11T03:42:34.223Z,99.90
2022-08-11T03:45:09.003Z,99.90
2022-08-11T03:48:07.111Z,99.90
2022-08-11T03:51:09.404Z,99.90
2022-08-11T03:54:10.525Z,99.90
2022-08-11T03:57:36.670Z,99.90
2022-08-11T04:00:22.135Z,99.90
2022-08-11T04:03:39.095Z,99.90
2022-08-11T04:07:05.623Z,99.90
2022-08-11T04:10:40.574Z,99.90
2022-08-11T04:14:18.176Z,99.90
2022-08-11T04:16:47.491Z,99.90
2022-08-11T04:20:16.204Z,99.90
2022-08-11T04:23:09.068Z,99.90
2022-08-11T04:26:19.042Z,99.90
2022-08-11T04:28:57.577Z,99.90
2022-08-11T04:31:51.931Z,99.90
2022-08-11T04:34:57.140Z,99.90
2022-08-11T04:38:12.257Z,99.90
2022-08-11T04:41:26.879Z,99.90
2022-08-11T04:44:35.655Z,99.90
2022-08-11T04:48:04.317Z,99.90
2022-08-11T04:51:16.971Z,99.90
2022-08-11T04:54:14.932Z,99.90
2022-08-11T04:56:59.282Z,99.90
2022-08-11T05:00:02.001Z,99.90
2022-08-11T05:03:19.403Z,99.90
2022-08-11T05:06:30.027Z,99.90
2022-08-11T05:09:35.268Z,99.90
2022-08-11T05:12:30.005Z,99.90
2022-08-11T05:15:12.478Z,99.90
2022-08-11T05:17:59.385Z,99.90
2022-08-11T05:20:44.389Z,99.90
2022-08-11T05:23:29.920Z,99.90
2022-08-11T05:26:47.640Z,99.90
2022-08-11T05:29:21.446Z,99.90
2022-08-11T05:32:09.171Z,99.90
2022-08-11T05:34:54.564Z,99.90
2022-08-11T05:37:27.101Z,99.90
2022-08-11T05:40:16.851Z,99.90
2022-08-11T05:43:07.848Z,99.90
2022-08-11T05:45:58.284Z,99.90
2022-08-11T05:48:53.015Z,99.90
2022-08-11T05:51:35.800Z,99.90
2022-08-11T05:54:28.606Z,99.90
2022-08-11T05:56:57.917Z,99.90
2022-08-11T05:59:25.133Z,99.90
2022-08-11T06:01:51.077Z,99.90
2022-08-11T06:04:20.695Z,99.90
2022-08-11T06:06:56.260Z,99.90
2022-08-11T06:09:26.865Z,99.90
2022-08-11T06:11:51.363Z,99.90
2022-08-11T06:14:17.080Z,99.90
2022-08-11T06:16:43.662Z,99.90
2022-08-11T06:19:08.248Z,99.90
2022-08-11T06:21:36.271Z,99.90
2022-08-11T06:24:01.284Z,99.90
2022-08-11T06:26:25.603Z,99.90
2022-08-11T06:28:50.531Z,99.90
2022-08-11T06:31:20.728Z,99.90
2022-08-11T06:34:01.256Z,97.50
2022-08-11T06:36:36.024Z,99.10
2022-08-11T06:39:13.710Z,95.80
2022-08-11T06:41:46.008Z,96.30
2022-08-11T06:44:25.596Z,95.30
2022-08-11T06:46:56.083Z,95.90
2022-08-11T06:49:40.288Z,95.00
2022-08-11T06:52:07.772Z,93.40
2022-08-11T06:55:04.346Z,92.30
2022-08-11T06:57:45.796Z,94.70
2022-08-11T07:00:33.155Z,90.80
2022-08-11T07:03:03.508Z,93.90
2022-08-11T07:05:43.960Z,92.80
2022-08-11T07:09:20.642Z,89.80
2022-08-11T07:12:43.494Z,91.10
2022-08-11T07:16:13.256Z,92.00
2022-08-11T07:18:40.733Z,90.40
2022-08-11T07:22:01.445Z,90.70
2022-08-11T07:24:59.836Z,90.80
2022-08-11T07:27:49.049Z,90.80
2022-08-11T07:30:14.101Z,89.10
2022-08-11T07:32:47.897Z,89.30
2022-08-11T07:35:20.096Z,91.30
2022-08-11T07:37:50.999Z,88.80
2022-08-11T07:40:26.969Z,89.50
2022-08-11T07:42:51.836Z,88.90
2022-08-11T07:45:33.108Z,90.60
2022-08-11T07:48:14.995Z,89.00
2022-08-11T07:51:02.764Z,88.80
2022-08-11T07:53:28.031Z,89.40
2022-08-11T07:55:53.509Z,87.00
2022-08-11T07:58:44.064Z,88.90
2022-08-11T08:01:28.032Z,87.90
2022-08-11T08:04:10.523Z,87.70
2022-08-11T08:06:55.052Z,87.70
2022-08-11T08:09:39.218Z,87.10
2022-08-11T08:12:23.471Z,88.10
2022-08-11T08:15:04.593Z,87.50
2022-08-11T08:17:46.644Z,88.70
2022-08-11T08:20:34.609Z,89.90
2022-08-11T08:23:02.809Z,89.10
2022-08-11T08:25:28.935Z,87.30
2022-08-11T08:27:54.004Z,89.80
2022-08-11T08:30:35.675Z,90.00
2022-08-11T08:33:01.180Z,88.30
2022-08-11T08:35:29.354Z,88.50
2022-08-11T08:37:56.315Z,87.70
2022-08-11T08:40:21.777Z,88.50
2022-08-11T08:42:53.721Z,89.30
2022-08-11T08:45:18.637Z,88.80
2022-08-11T08:47:52.577Z,88.30
2022-08-11T08:50:27.498Z,88.60
2022-08-11T08:52:57.683Z,84.90
2022-08-11T08:55:23.644Z,87.00
2022-08-11T08:57:50.736Z,86.10
2022-08-11T09:00:22.831Z,87.40
2022-08-11T09:02:47.841Z,86.20
2022-08-11T09:05:13.020Z,87.50
2022-08-11T09:07:37.964Z,84.40
2022-08-11T09:10:04.487Z,84.80
2022-08-11T09:12:36.405Z,84.90
2022-08-11T09:15:06.000Z,85.70
2022-08-11T09:17:32.752Z,85.10
2022-08-11T09:20:01.572Z,84.60
2022-08-11T09:22:43.540Z,85.30
2022-08-11T09:25:26.613Z,85.10
2022-08-11T09:27:52.597Z,82.20
2022-08-11T09:30:16.319Z,79.40
2022-08-11T09:32:42.139Z,81.00
2022-08-11T09:35:07.454Z,83.20
2022-08-11T09:37:54.161Z,81.80
2022-08-11T09:40:31.271Z,80.70
2022-08-11T09:43:14.724Z,78.30
2022-08-11T09:45:40.684Z,80.50
2022-08-11T09:48:07.235Z,81.60
2022-08-11T09:50:32.135Z,79.10
2022-08-11T09:53:36.217Z,78.80
2022-08-11T09:55:41.916Z,78.60
2022-08-11T09:58:41.829Z,75.50
2022-08-11T10:01:03.187Z,79.10
2022-08-11T10:03:28.579Z,76.90
2022-08-11T10:06:15.327Z,74.70
2022-08-11T10:08:43.368Z,77.30
2022-08-11T10:11:11.224Z,72.60
2022-08-11T10:14:31.871Z,71.40
2022-08-11T10:16:43.467Z,73.30
2022-08-11T10:19:08.493Z,72.10
2022-08-11T10:21:39.488Z,75.90
2022-08-11T10:24:22.282Z,71.90
2022-08-11T10:27:00.333Z,76.80
2022-08-11T10:29:49.583Z,69.00
2022-08-11T10:32:33.207Z,69.20
2022-08-11T10:35:09.231Z,66.30
2022-08-11T10:38:08.848Z,65.00
2022-08-11T10:40:23.721Z,65.90
2022-08-11T10:43:07.171Z,67.10
2022-08-11T10:45:52.756Z,65.10
2022-08-11T10:48:18.351Z,68.60
2022-08-11T10:51:04.349Z,64.90
2022-08-11T10:53:45.839Z,62.60
2022-08-11T10:56:27.902Z,63.70
2022-08-11T10:58:53.669Z,65.20
2022-08-11T11:01:26.283Z,67.80
2022-08-11T11:03:53.855Z,62.80
2022-08-11T11:06:28.326Z,63.80
2022-08-11T11:09:04.786Z,63.10
2022-08-11T11:11:46.502Z,61.60
2022-08-11T11:14:28.410Z,59.40
2022-08-11T11:17:11.408Z,60.20
2022-08-11T11:19:40.360Z,63.40
2022-08-11T11:22:24.285Z,57.80
2022-08-11T11:25:04.796Z,59.70
2022-08-11T11:27:36.967Z,65.00
2022-08-11T11:30:12.296Z,58.80
2022-08-11T11:32:54.753Z,57.70
2022-08-11T11:35:36.673Z,59.10
2022-08-11T11:38:04.855Z,56.80
2022-08-11T11:40:31.898Z,58.50
2022-08-11T11:42:59.164Z,58.70
2022-08-11T11:45:26.337Z,56.50
2022-08-11T11:47:54.352Z,56.80
2022-08-11T11:50:19.411Z,58.10
2022-08-11T11:52:44.896Z,58.80
2022-08-11T11:55:10.225Z,57.50
2022-08-11T11:57:58.588Z,59.40
2022-08-11T12:00:43.453Z,56.00
2022-08-11T12:03:12.167Z,57.40
2022-08-11T12:05:37.903Z,54.50
2022-08-11T12:08:15.404Z,55.10
2022-08-11T12:10:40.110Z,55.30
2022-08-11T12:13:36.320Z,54.20
2022-08-11T12:16:33.573Z,57.60
2022-08-11T12:18:53.501Z,55.90
2022-08-11T12:21:18.374Z,60.00
2022-08-11T12:24:14.856Z,55.90
2022-08-11T12:26:54.422Z,63.20
2022-08-11T12:29:41.202Z,58.20
2022-08-11T12:32:09.951Z,52.30
2022-08-11T12:34:35.650Z,54.20
2022-08-11T12:37:05.617Z,55.70
2022-08-11T12:40:16.374Z,55.00
2022-08-11T12:42:56.409Z,55.00
2022-08-11T12:45:31.689Z,53.40
2022-08-11T12:48:59.472Z,58.50
2022-08-11T12:51:27.437Z,53.90
2022-08-11T12:53:58.797Z,52.30
2022-08-11T12:56:40.496Z,53.60
2022-08-11T12:59:24.193Z,52.60
2022-08-11T13:02:05.575Z,54.70
2022-08-11T13:04:47.905Z,52.30
2022-08-11T13:07:18.380Z,57.80
2022-08-11T13:09:42.915Z,52.00
2022-08-11T13:12:25.575Z,52.50
2022-08-11T13:14:49.567Z,53.60
2022-08-11T13:17:43.524Z,52.70
2022-08-11T13:20:10.780Z,51.20
2022-08-11T13:22:38.490Z,53.20
2022-08-11T13:25:02.452Z,52.10
2022-08-11T13:27:26.731Z,55.00
2022-08-11T13:29:54.107Z,55.00
2022-08-11T13:32:19.288Z,50.10
2022-08-11T13:34:43.876Z,51.90
2022-08-11T13:37:07.775Z,52.30
2022-08-11T13:39:35.346Z,53.70
2022-08-11T13:42:02.964Z,52.60
2022-08-11T13:44:30.123Z,53.60
2022-08-11T13:46:56.468Z,54.90
2022-08-11T13:49:21.405Z,53.80
2022-08-11T13:51:45.705Z,50.60
2022-08-11T13:54:12.509Z,48.40
2022-08-11T13:56:40.719Z,49.50
2022-08-11T13:59:05.700Z,48.30
2022-08-11T14:02:22.365Z,49.30
2022-08-11T14:04:29.681Z,49.30
2022-08-11T14:07:00.897Z,55.20
2022-08-11T14:09:28.671Z,49.00
2022-08-11T14:12:22.332Z,49.00
2022-08-11T14:14:56.749Z,50.70
2022-08-11T14:17:47.038Z,52.30
2022-08-11T14:20:35.488Z,50.60
2022-08-11T14:22:53.325Z,51.50
2022-08-11T14:25:17.865Z,50.90
2022-08-11T14:28:30.679Z,46.20
2022-08-11T14:30:46.871Z,49.30
2022-08-11T14:33:17.117Z,47.90
2022-08-11T14:35:44.530Z,48.60
2022-08-11T14:38:13.868Z,48.00
2022-08-11T14:40:54.923Z,47.40
2022-08-11T14:44:10.440Z,49.40
2022-08-11T14:46:38.207Z,51.10
2022-08-11T14:49:02.570Z,45.80
2022-08-11T14:51:27.908Z,49.20
2022-08-11T14:54:12.064Z,50.00
2022-08-11T14:56:38.040Z,50.60
2022-08-11T14:59:03.255Z,51.90
2022-08-11T15:01:45.549Z,48.30
2022-08-11T15:04:35.326Z,46.10
2022-08-11T15:06:54.260Z,45.70
2022-08-11T15:09:18.274Z,47.50
2022-08-11T15:12:00.922Z,49.30
2022-08-11T15:14:41.433Z,48.30
2022-08-11T15:17:09.634Z,48.20
2022-08-11T15:19:36.753Z,47.00
2022-08-11T15:22:27.425Z,48.50
2022-08-11T15:24:51.800Z,48.90
2022-08-11T15:27:40.616Z,48.90
2022-08-11T15:30:41.029Z,47.20
2022-08-11T15:33:28.145Z,49.40
2022-08-11T15:36:11.832Z,48.20
2022-08-11T15:38:41.592Z,47.30
2022-08-11T15:41:25.335Z,47.90
2022-08-11T15:44:12.987Z,48.40
2022-08-11T15:46:52.512Z,49.30
2022-08-11T15:49:24.616Z,47.70
2022-08-11T15:52:12.344Z,49.00
2022-08-11T15:54:42.609Z,52.70
2022-08-11T15:57:07.427Z,47.90
2022-08-11T15:59:51.148Z,50.40
2022-08-11T16:02:39.532Z,50.40
2022-08-11T16:05:08.508Z,49.30
2022-08-11T16:07:39.791Z,49.20
2022-08-11T16:10:09.733Z,49.00
2022-08-11T16:12:41.023Z,51.10
2022-08-11T16:15:25.867Z,50.10
2022-08-11T16:17:59.504Z,50.70
2022-08-11T16:20:26.317Z,51.90
2022-08-11T16:23:00.314Z,50.60
2022-08-11T16:27:04.431Z,50.70
2022-08-11T16:28:14.583Z,50.40
2022-08-11T16:30:43.204Z,51.40
2022-08-11T16:33:49.031Z,52.10
2022-08-11T16:36:11.912Z,52.10
2022-08-11T16:38:36.902Z,50.80
2022-08-11T16:41:07.222Z,50.40
2022-08-11T16:43:54.212Z,51.10
2022-08-11T16:46:36.866Z,51.10
2022-08-11T16:49:03.988Z,51.00
2022-08-11T16:51:27.847Z,51.60
2022-08-11T16:54:04.815Z,52.20
2022-08-11T16:56:35.667Z,52.00
2022-08-11T16:59:16.908Z,52.40
2022-08-11T17:01:44.860Z,51.80
2022-08-11T17:04:36.521Z,51.80
2022-08-11T17:07:41.673Z,52.00
2022-08-11T17:10:50.970Z,51.80
2022-08-11T17:13:20.502Z,51.80
2022-08-11T17:16:06.823Z,51.90
2022-08-11T17:18:43.173Z,53.40
2022-08-11T17:21:09.568Z,52.90
2022-08-11T17:23:52.666Z,51.90
2022-08-11T17:26:21.652Z,50.60
2022-08-11T17:28:51.417Z,50.70
2022-08-11T17:31:33.424Z,51.50
2022-08-11T17:34:16.986Z,51.10
2022-08-11T17:36:45.776Z,51.30
2022-08-11T17:39:10.504Z,51.60
2022-08-11T17:41:51.703Z,52.20
2022-08-11T17:44:33.455Z,52.50
2022-08-11T17:47:14.844Z,52.90
2022-08-11T17:49:41.081Z,54.80
2022-08-11T17:52:24.636Z,54.70
2022-08-11T17:55:02.460Z,55.00
2022-08-11T17:57:49.130Z,54.60
2022-08-11T18:00:15.088Z,53.80
2022-08-11T18:02:59.726Z,54.00
2022-08-11T18:05:26.813Z,56.10
2022-08-11T18:08:12.514Z,56.10
2022-08-11T18:10:55.035Z,54.10
2022-08-11T18:13:41.520Z,57.30
2022-08-11T18:16:23.115Z,59.30
2022-08-11T18:19:04.800Z,59.20
2022-08-11T18:22:01.840Z,62.20
2022-08-11T18:24:59.129Z,61.90
2022-08-11T18:27:41.944Z,62.80
2022-08-11T18:30:25.987Z,63.30
2022-08-11T18:33:39.746Z,64.30
2022-08-11T18:36:18.303Z,64.50
2022-08-11T18:39:01.620Z,65.00
2022-08-11T18:41:46.218Z,64.30
2022-08-11T18:44:28.927Z,65.20
2022-08-11T18:47:12.542Z,66.20
2022-08-11T18:50:03.522Z,67.70
2022-08-11T18:52:49.645Z,67.40
2022-08-11T18:55:35.927Z,68.40
2022-08-11T18:58:24.245Z,66.80
2022-08-11T19:01:06.606Z,68.70
2022-08-11T19:03:49.573Z,70.00
2022-08-11T19:06:39.743Z,70.50
2022-08-11T19:09:25.557Z,70.70
2022-08-11T19:12:08.274Z,70.10
2022-08-11T19:14:54.252Z,70.50
2022-08-11T19:17:44.397Z,70.80
2022-08-11T19:20:32.446Z,71.60
2022-08-11T19:23:15.721Z,72.00
2022-08-11T19:25:58.621Z,72.90
2022-08-11T19:28:42.300Z,72.40
2022-08-11T19:31:27.737Z,73.80
2022-08-11T19:34:10.958Z,74.00
2022-08-11T19:36:54.224Z,74.30
2022-08-11T19:39:37.314Z,74.40
2022-08-11T19:42:19.575Z,75.40
2022-08-11T19:45:02.059Z,75.20
2022-08-11T19:47:45.605Z,75.90
2022-08-11T19:50:27.709Z,76.20
2022-08-11T19:53:16.908Z,76.40
2022-08-11T19:55:59.710Z,77.50
2022-08-11T19:58:40.915Z,77.60
2022-08-11T20:01:23.645Z,77.80
2022-08-11T20:04:06.536Z,77.60
2022-08-11T20:06:48.776Z,77.90
2022-08-11T20:10:04.770Z,78.50
2022-08-11T20:12:34.382Z,80.30
2022-08-11T20:15:17.264Z,79.20
2022-08-11T20:18:00.383Z,79.80
2022-08-11T20:20:46.249Z,79.90
2022-08-11T20:23:32.125Z,80.60
2022-08-11T20:26:32.787Z,81.10
2022-08-11T20:29:14.648Z,81.20
2022-08-11T20:31:56.800Z,81.50
2022-08-11T20:34:38.362Z,81.60
2022-08-11T20:37:23.396Z,82.20
2022-08-11T20:40:05.768Z,82.70
2022-08-11T20:42:48.514Z,81.80
2022-08-11T20:45:33.483Z,83.50
2022-08-11T20:48:16.372Z,82.70
2022-08-11T20:50:59.154Z,82.40
2022-08-11T20:53:44.515Z,81.20
2022-08-11T20:56:28.934Z,80.80
2022-08-11T20:59:18.213Z,81.50
2022-08-11T21:02:03.499Z,79.50
2022-08-11T21:04:54.813Z,80.80
2022-08-11T21:07:41.191Z,81.10
2022-08-11T21:10:26.526Z,80.10
2022-08-11T21:13:27.061Z,80.00
2022-08-11T21:16:16.484Z,81.90
2022-08-11T21:19:09.907Z,84.10
2022-08-11T21:21:53.878Z,82.40
2022-08-11T21:24:39.439Z,83.70
2022-08-11T21:27:34.316Z,83.80
2022-08-11T21:30:16.352Z,83.70
2022-08-11T21:33:00.491Z,83.80
2022-08-11T21:35:45.024Z,84.70
2022-08-11T21:38:26.999Z,84.70
2022-08-11T21:41:10.620Z,85.00
2022-08-11T21:43:54.513Z,84.90
2022-08-11T21:46:39.993Z,85.10
2022-08-11T21:49:22.711Z,84.80
2022-08-11T21:52:04.236Z,84.60
2022-08-11T21:54:46.476Z,85.20
2022-08-11T21:57:28.445Z,85.10
2022-08-11T22:00:14.594Z,85.70
2022-08-11T22:02:58.345Z,86.50
2022-08-11T22:05:40.175Z,86.50
2022-08-11T22:08:21.927Z,87.30
2022-08-11T22:11:03.407Z,86.90
2022-08-11T22:14:06.025Z,86.80
2022-08-11T22:16:47.301Z,86.80
2022-08-11T22:19:28.739Z,88.20
2022-08-11T22:22:10.380Z,88.50
2022-08-11T22:24:53.776Z,88.30
2022-08-11T22:27:35.011Z,89.30
2022-08-11T22:30:16.132Z,88.90
2022-08-11T22:33:00.572Z,89.50
2022-08-11T22:35:42.435Z,89.40
2022-08-11T22:38:24.281Z,90.20
2022-08-11T22:41:05.369Z,90.50
2022-08-11T22:43:47.297Z,90.80
2022-08-11T22:46:28.524Z,91.50
2022-08-11T22:49:12.731Z,91.00
2022-08-11T22:51:54.671Z,91.10
2022-08-11T22:54:37.887Z,91.20
2022-08-11T22:57:19.323Z,91.20
2022-08-11T23:00:00.959Z,91.30
2022-08-11T23:02:43.659Z,91.70
2022-08-11T23:05:28.076Z,92.10
2022-08-11T23:08:09.244Z,92.10
2022-08-11T23:10:51.395Z,92.50
2022-08-11T23:13:33.359Z,92.50
2022-08-11T23:16:15.727Z,92.50
2022-08-11T23:18:57.749Z,92.40
2022-08-11T23:21:40.813Z,93.10
2022-08-11T23:24:22.359Z,93.00
2022-08-11T23:27:04.440Z,93.40
2022-08-11T23:29:47.240Z,93.80
2022-08-11T23:32:28.428Z,93.60
2022-08-11T23:35:39.254Z,94.00
2022-08-11T23:38:16.115Z,95.40
2022-08-11T23:40:57.793Z,94.90
2022-08-11T23:43:39.907Z,95.00
2022-08-11T23:46:21.031Z,95.30
2022-08-11T23:49:06.015Z,95.50
2022-08-11T23:51:47.659Z,95.50
2022-08-11T23:54:36.611Z,95.90
2022-08-11T23:57:18.790Z,97.80
2022-08-11T23:59:59.995Z,96.70
